Time;durP1;ratioP1;P1;durP2;ratioP2;P2;SDS_P1;SDS_P2;PMS_P1;PMS_P2;Temp;Humidity;BMP_temperature;BMP_pressure;BME280_temperature;BME280_humidity;BME280_pressure;Samples;Min_cycle;Max_cycle;Signal;HPM_P1;HPM_P2
2022/11/16 00:00:21;;;;;;;;;16.00;12.00;;;;;8.39;86.02;97687.56;4953790;28;102412;-73
2022/11/16 00:02:50;;;;;;;;;13.00;11.00;;;;;8.40;85.87;97679.28;4970375;28;102886;-73
2022/11/16 00:05:18;;;;;;;;;12.00;11.00;;;;;8.40;85.46;97681.16;4975456;27;102749;-73
2022/11/16 00:07:51;;;;;;;;;10.00;9.25;;;;;8.39;84.91;97687.56;4964491;28;102642;-72
2022/11/16 00:10:18;;;;;;;;;14.75;14.50;;;;;8.11;85.91;97641.16;4960860;28;103794;-73
2022/11/16 00:12:45;;;;;;;;;12.50;8.00;;;;;8.20;85.37;97645.31;4963284;28;104112;-74
2022/11/16 00:15:12;;;;;;;;;20.00;16.75;;;;;8.40;85.20;97676.59;4968564;28;102204;-74
2022/11/16 00:17:39;;;;;;;;;8.00;5.50;;;;;8.37;85.28;97668.13;4969299;28;102002;-74
2022/11/16 00:20:07;;;;;;;;;23.00;23.00;;;;;8.36;85.44;97664.59;4964788;28;102299;-74
2022/11/16 00:22:34;;;;;;;;;30.75;26.50;;;;;8.29;85.56;97665.59;4958099;28;104109;-74
2022/11/16 00:25:01;;;;;;;;;38.25;32.00;;;;;8.30;85.80;97668.13;4964762;28;102547;-74
2022/11/16 00:27:28;;;;;;;;;26.50;22.00;;;;;8.31;85.58;97674.34;4948161;28;102385;-73
2022/11/16 00:29:55;;;;;;;;;29.25;23.50;;;;;8.30;85.83;97668.13;4968754;28;102584;-73
2022/11/16 00:32:22;;;;;;;;;21.75;21.25;;;;;8.32;85.50;97671.44;4964945;28;104121;-73
2022/11/16 00:34:49;;;;;;;;;22.75;21.50;;;;;8.39;85.08;97683.03;4953497;28;102236;-73
2022/11/16 00:37:16;;;;;;;;;21.50;18.75;;;;;8.33;85.35;97669.56;4966822;28;102518;-73
2022/11/16 00:39:43;;;;;;;;;22.75;21.50;;;;;8.33;84.84;97666.88;4974138;27;103291;-73
2022/11/16 00:42:10;;;;;;;;;17.00;15.75;;;;;8.39;85.13;97674.09;4958097;28;104006;-73
2022/11/16 00:44:37;;;;;;;;;14.25;14.25;;;;;8.45;85.45;97681.34;4965069;27;102133;-73
2022/11/16 00:47:04;;;;;;;;;20.75;20.50;;;;;8.46;85.23;97677.63;4968975;28;102279;-74
2022/11/16 00:49:31;;;;;;;;;28.00;26.00;;;;;8.44;84.99;97675.13;4970657;28;102083;-74
2022/11/16 00:51:58;;;;;;;;;19.50;17.25;;;;;8.45;85.25;97676.81;4963564;28;108977;-74
2022/11/16 00:54:25;;;;;;;;;21.50;20.75;;;;;8.35;84.92;97654.03;4960458;28;102581;-74
2022/11/16 00:56:52;;;;;;;;;23.00;23.00;;;;;8.35;85.17;97649.47;4963744;28;102214;-73
2022/11/16 00:59:19;;;;;;;;;19.00;16.25;;;;;8.42;85.37;97655.66;4971200;28;102185;-73
2022/11/16 01:01:46;;;;;;;;;20.50;20.50;;;;;8.41;85.30;97651.31;4962881;28;105132;-73
2022/11/16 01:04:13;;;;;;;;;11.50;9.50;;;;;8.42;85.63;97647.56;4957908;28;102606;-73
2022/11/16 01:06:40;;;;;;;;;16.25;15.50;;;;;8.40;85.21;97646.97;4970304;27;103644;-72
2022/11/16 01:09:07;;;;;;;;;9.75;8.50;;;;;8.41;85.60;97639.72;4968369;28;102370;-73
2022/11/16 01:14:20;;;;;;;;;21.50;19.50;;;;;8.40;85.41;97644.28;4957278;28;102031;-73
2022/11/16 01:16:49;;;;;;;;;26.25;22.50;;;;;8.40;85.60;97640.75;4969591;28;102132;-73
2022/11/16 01:19:16;;;;;;;;;17.75;17.50;;;;;8.39;85.52;97633.69;4972345;28;102030;-73
2022/11/16 01:21:43;;;;;;;;;21.50;18.75;;;;;8.34;85.96;97630.81;4968383;28;104001;-74
2022/11/16 01:24:10;;;;;;;;;39.25;28.75;;;;;8.26;86.88;97631.84;4977661;28;101988;-73
2022/11/16 01:26:37;;;;;;;;;38.00;32.50;;;;;8.24;86.65;97631.22;4977890;27;102292;-73
2022/11/16 01:29:04;;;;;;;;;39.00;34.25;;;;;8.21;86.79;97620.03;4970233;28;102437;-73
2022/11/16 01:31:31;;;;;;;;;38.75;34.00;;;;;8.25;86.73;97623.97;4974014;28;104024;-73
2022/11/16 01:33:58;;;;;;;;;32.00;27.25;;;;;8.23;86.52;97613.41;4979868;28;102388;-73
2022/11/16 01:36:25;;;;;;;;;31.25;28.00;;;;;8.24;87.01;97606.16;4977337;28;102158;-73
2022/11/16 01:38:52;;;;;;;;;35.00;31.25;;;;;8.21;86.62;97595.81;4973743;28;102308;-73
2022/11/16 01:41:22;;;;;;;;;24.75;23.00;;;;;8.23;86.40;97605.34;4970563;28;103669;-73
2022/11/16 01:43:54;;;;;;;;;20.75;19.00;;;;;8.24;86.23;97593.50;4969268;28;102275;-73
2022/11/16 01:46:22;;;;;;;;;13.75;13.00;;;;;8.23;86.26;97594.56;4970222;28;102034;-73
2022/11/16 01:49:02;;;;;;;;;21.50;16.75;;;;;8.17;86.91;97592.72;4973874;28;102435;-73
2022/11/16 01:51:31;;;;;;;;;32.75;27.00;;;;;8.16;86.75;97592.91;4971355;28;108666;-73
2022/11/16 01:54:01;;;;;;;;;32.25;27.75;;;;;8.17;86.78;97587.31;4972481;28;102083;-73
2022/11/16 01:56:31;;;;;;;;;28.50;25.50;;;;;8.17;86.99;97578.41;4973161;28;102239;-73
2022/11/16 01:58:58;;;;;;;;;29.00;24.50;;;;;8.18;86.56;97583.59;4974009;28;102030;-73
2022/11/16 02:01:25;;;;;;;;;17.50;15.50;;;;;8.17;87.22;97581.09;4961474;28;104018;-73
2022/11/16 02:03:53;;;;;;;;;13.25;12.75;;;;;8.16;86.90;97579.44;4968979;28;102483;-73
2022/11/16 02:07:05;;;;;;;;;23.25;18.50;;;;;8.18;87.01;97577.38;4970380;28;102007;-73
2022/11/16 02:10:35;;;;;;;;;21.00;20.75;;;;;8.20;87.06;97575.28;4966105;28;102567;-73
2022/11/16 02:13:27;;;;;;;;;24.50;18.75;;;;;8.21;86.52;97579.66;4961545;28;107724;-73
2022/11/16 02:16:55;;;;;;;;;23.25;21.50;;;;;8.20;86.69;97573.44;4968358;27;102402;-74
2022/11/16 02:20:07;;;;;;;;;14.00;14.00;;;;;8.21;86.38;97571.56;4969924;28;101980;-72
2022/11/16 02:23:08;;;;;;;;;8.25;7.00;;;;;8.21;86.57;97582.34;4969927;28;102443;-72
2022/11/16 02:25:54;;;;;;;;;12.75;11.00;;;;;8.19;86.21;97574.50;4972744;28;109080;-73
2022/11/16 02:28:23;;;;;;;;;14.75;14.00;;;;;8.19;86.33;97573.66;4973739;28;102217;-73
2022/11/16 02:30:54;;;;;;;;;24.25;22.50;;;;;8.18;86.61;97562.06;4968530;28;102121;-73
2022/11/16 02:33:28;;;;;;;;;12.00;10.00;;;;;8.19;86.82;97562.88;4966804;28;103054;-73
2022/11/16 02:35:59;;;;;;;;;23.00;17.50;;;;;8.13;86.68;97556.47;4973411;27;104015;-73
2022/11/16 02:38:30;;;;;;;;;78.00;58.67;;;;;7.99;88.01;97558.38;4975122;28;102496;-73
2022/11/16 02:41:03;;;;;;;;;88.67;74.33;;;;;7.91;88.54;97557.78;4973411;27;102431;-73
2022/11/16 02:43:36;;;;;;;;;85.67;69.33;;;;;7.87;88.88;97551.16;4975900;28;102016;-73
2022/11/16 02:46:08;;;;;;;;;74.00;53.67;;;;;7.89;88.37;97547.19;4958339;28;108677;-74
2022/11/16 02:48:45;;;;;;;;;64.50;50.25;;;;;7.90;88.85;97546.16;4971473;28;102397;-74
2022/11/16 02:51:13;;;;;;;;;59.75;47.75;;;;;7.81;88.10;97523.22;4967617;28;102311;-73
2022/11/16 02:53:51;;;;;;;;;37.00;29.50;;;;;7.98;87.71;97545.94;4975014;28;102056;-73
2022/11/16 02:56:19;;;;;;;;;41.00;34.25;;;;;7.99;88.54;97544.09;4972551;28;104193;-73
2022/11/16 02:58:46;;;;;;;;;36.25;28.25;;;;;8.02;87.93;97551.72;4973864;28;102358;-74
2022/11/16 03:01:23;;;;;;;;;27.25;20.00;;;;;8.03;87.63;97554.22;4968512;28;102021;-73
2022/11/16 03:03:59;;;;;;;;;26.25;23.00;;;;;8.08;87.60;97558.97;4975880;28;102312;-73
2022/11/16 03:06:31;;;;;;;;;37.00;30.25;;;;;8.10;87.04;97553.38;4956973;27;103674;-73
2022/11/16 03:09:06;;;;;;;;;34.25;30.50;;;;;8.04;87.15;97544.28;4972788;28;102296;-73
2022/11/16 03:14:34;;;;;;;;;27.00;20.50;;;;;8.02;87.66;97552.56;4973522;28;101967;-73
2022/11/16 03:17:03;;;;;;;;;24.00;23.25;;;;;8.02;86.89;97541.78;4955783;28;108668;-73
2022/11/16 03:20:06;;;;;;;;;26.50;24.75;;;;;8.03;87.40;97546.16;4973943;28;102344;-73
2022/11/16 03:22:41;;;;;;;;;28.00;25.25;;;;;8.08;86.85;97551.72;4969073;28;102063;-74
2022/11/16 03:25:11;;;;;;;;;31.25;29.75;;;;;8.08;87.01;97535.56;4974731;28;102163;-73
2022/11/16 03:27:47;;;;;;;;;47.00;38.25;;;;;8.04;87.13;97534.34;4973546;27;104533;-74
2022/11/16 03:30:27;;;;;;;;;31.25;26.50;;;;;8.00;87.37;97538.50;4969773;28;102028;-73
2022/11/16 03:32:58;;;;;;;;;41.25;34.50;;;;;7.96;87.46;97545.34;4965022;28;102509;-74
2022/11/16 03:35:29;;;;;;;;;35.75;32.50;;;;;7.95;87.54;97541.00;4973782;28;102580;-74
2022/11/16 03:37:58;;;;;;;;;23.25;19.75;;;;;7.97;87.82;97544.28;4966853;28;104006;-73
2022/11/16 03:40:29;;;;;;;;;33.25;27.25;;;;;7.97;87.70;97538.91;4973988;28;102480;-74
2022/11/16 03:42:59;;;;;;;;;31.75;25.50;;;;;7.99;87.57;97538.69;4972397;27;102516;-73
2022/11/16 03:45:28;;;;;;;;;21.25;19.50;;;;;8.00;88.00;97525.03;4969342;28;102462;-73
2022/11/16 03:47:55;;;;;;;;;16.25;15.25;;;;;8.03;86.93;97530.00;4960054;28;103986;-73
2022/11/16 03:50:22;;;;;;;;;22.00;19.00;;;;;8.07;87.20;97533.09;4965410;28;102610;-72
2022/11/16 03:52:49;;;;;;;;;28.50;26.25;;;;;8.07;86.90;97528.53;4960880;28;102057;-72
2022/11/16 03:55:16;;;;;;;;;24.00;23.00;;;;;8.08;87.11;97523.97;4967449;28;102148;-72
2022/11/16 03:57:43;;;;;;;;;19.50;18.75;;;;;7.97;87.22;97506.59;4969605;28;103978;-73
2022/11/16 04:00:11;;;;;;;;;22.25;21.25;;;;;7.97;87.11;97505.78;4969376;28;102009;-73
2022/11/16 04:02:38;;;;;;;;;27.75;24.25;;;;;8.06;86.64;97510.72;4970866;27;101975;-73
2022/11/16 04:24:53;;;;;;;;;9.00;9.00;;;;;8.10;87.95;97486.91;4969154;28;101981;-72
2022/11/16 04:30:13;;;;;;;;;28.25;23.75;;;;;8.10;88.08;97483.38;4969549;28;108643;-73
2022/11/16 04:38:12;;;;;;;;;23.25;16.50;;;;;8.11;87.85;97471.56;4971632;28;102488;-73
2022/11/16 04:40:39;;;;;;;;;18.50;14.50;;;;;8.11;87.98;97479.63;4887271;28;104021;-74
2022/11/16 04:43:06;;;;;;;;;18.25;14.50;;;;;8.12;87.88;97476.75;4926279;28;102300;-74
2022/11/16 04:48:19;;;;;;;;;21.75;19.00;;;;;8.14;88.44;97471.16;4953493;28;103597;-74
2022/11/16 04:50:47;;;;;;;;;16.50;13.50;;;;;8.14;87.82;97473.84;4969759;28;103939;-73
2022/11/16 04:53:14;;;;;;;;;14.50;11.00;;;;;8.12;88.01;97465.13;4970202;27;102371;-77
2022/11/16 04:55:41;;;;;;;;;15.00;12.75;;;;;8.14;88.62;97463.06;4965266;28;102040;-75
2022/11/16 04:58:08;;;;;;;;;9.75;5.75;;;;;8.14;87.88;97463.06;4964924;27;102835;-75
2022/11/16 05:00:35;;;;;;;;;17.75;15.50;;;;;8.17;87.88;97452.69;4968754;28;104000;-75
2022/11/16 05:03:04;;;;;;;;;27.00;23.50;;;;;8.18;87.86;97448.97;4970167;27;102201;-74
2022/11/16 05:05:31;;;;;;;;;19.00;17.50;;;;;8.19;88.22;97444.41;4958848;28;102062;-75
2022/11/16 05:07:58;;;;;;;;;18.00;16.25;;;;;8.20;87.89;97451.44;4970771;27;103579;-76
2022/11/16 05:10:25;;;;;;;;;15.25;14.00;;;;;8.14;88.22;97425.38;4967191;28;103018;-73
2022/11/16 05:12:52;;;;;;;;;17.25;15.00;;;;;8.21;88.28;97439.63;4961965;28;103413;-73
2022/11/16 05:15:19;;;;;;;;;14.50;12.00;;;;;8.20;87.97;97429.88;4953906;28;106842;-74
2022/11/16 05:17:46;;;;;;;;;14.25;13.25;;;;;8.22;88.55;97431.34;4961946;28;102385;-75
2022/11/16 05:22:59;;;;;;;;;22.50;17.00;;;;;8.21;88.33;97431.53;4965416;28;102760;-74
2022/11/16 05:25:26;;;;;;;;;16.25;13.25;;;;;8.22;88.27;97427.81;4963738;28;102938;-74
2022/11/16 05:27:56;;;;;;;;;16.50;14.75;;;;;8.22;88.44;97422.44;4966530;28;102641;-73
2022/11/16 05:30:23;;;;;;;;;18.25;16.75;;;;;8.17;88.13;97420.38;4966379;28;104019;-72
2022/11/16 05:32:50;;;;;;;;;19.50;17.25;;;;;8.22;88.15;97425.13;4951918;27;102040;-72
2022/11/16 05:35:17;;;;;;;;;27.75;21.25;;;;;8.23;88.42;97427.63;4964003;28;103345;-73
2022/11/16 05:37:44;;;;;;;;;24.50;23.25;;;;;8.22;88.42;97419.75;4963608;28;102601;-73
2022/11/16 05:40:11;;;;;;;;;21.75;17.00;;;;;8.23;88.60;97421.41;4965807;28;103482;-73
2022/11/16 05:42:38;;;;;;;;;24.75;21.25;;;;;8.24;88.21;97426.56;4966285;28;102011;-73
2022/11/16 05:45:05;;;;;;;;;19.75;17.00;;;;;8.24;88.06;97413.09;4962665;27;102539;-73
2022/11/16 05:47:32;;;;;;;;;19.50;16.00;;;;;8.22;87.92;97409.81;4971574;28;102179;-72
2022/11/16 05:49:59;;;;;;;;;17.75;17.00;;;;;8.23;88.76;97418.72;4973496;27;108716;-73
2022/11/16 05:52:26;;;;;;;;;25.50;22.75;;;;;8.22;88.51;97414.34;4972652;27;102504;-73
2022/11/16 05:54:53;;;;;;;;;20.25;20.00;;;;;8.18;88.79;97405.91;4968831;28;102091;-72
2022/11/16 05:57:20;;;;;;;;;23.50;18.75;;;;;8.20;88.70;97409.19;4972117;28;101924;-73
2022/11/16 05:59:47;;;;;;;;;20.75;19.00;;;;;8.20;88.57;97408.34;4968867;28;103831;-73
2022/11/16 06:02:16;;;;;;;;;18.00;14.00;;;;;8.22;88.01;97406.28;4972625;28;102229;-72
2022/11/16 06:04:43;;;;;;;;;15.75;14.25;;;;;8.22;88.43;97406.28;4967370;28;102237;-73
2022/11/16 06:07:10;;;;;;;;;16.00;12.50;;;;;8.23;88.21;97407.94;4972783;28;102350;-73
2022/11/16 06:09:37;;;;;;;;;25.25;17.00;;;;;8.21;88.69;97408.16;4973356;28;104140;-72
2022/11/16 06:12:04;;;;;;;;;30.25;26.75;;;;;8.17;88.42;97398.84;4970483;28;102337;-72
2022/11/16 06:14:31;;;;;;;;;31.50;28.25;;;;;8.17;88.68;97408.78;4970887;28;102240;-73
2022/11/16 06:16:58;;;;;;;;;34.00;29.50;;;;;8.17;88.87;97403.41;4973818;28;102371;-73
2022/11/16 06:19:25;;;;;;;;;29.50;26.75;;;;;8.17;88.61;97403.41;4970199;28;103995;-74
2022/11/16 06:21:57;;;;;;;;;25.25;20.50;;;;;8.19;88.69;97399.47;4971903;28;103785;-74
2022/11/16 06:24:24;;;;;;;;;25.25;22.25;;;;;8.20;88.88;97402.97;4972775;28;102341;-74
2022/11/16 06:26:51;;;;;;;;;30.50;26.25;;;;;8.19;88.29;97402.16;4975802;27;102272;-73
2022/11/16 06:29:18;;;;;;;;;28.00;22.75;;;;;8.18;88.93;97400.50;4975041;28;103953;-72
2022/11/16 06:31:45;;;;;;;;;31.50;27.25;;;;;8.18;88.66;97395.13;4970617;28;102158;-72
2022/11/16 06:34:12;;;;;;;;;27.00;21.25;;;;;8.15;88.88;97400.13;4975391;27;102335;-72
2022/11/16 06:36:39;;;;;;;;;35.00;25.50;;;;;8.14;88.62;97403.84;4974325;28;102349;-72
2022/11/16 06:39:06;;;;;;;;;37.00;33.00;;;;;8.12;89.08;97397.84;4970142;27;103859;-73
2022/11/16 06:41:33;;;;;;;;;39.00;34.00;;;;;8.09;89.37;97404.50;4976217;28;104184;-73
2022/11/16 06:44:06;;;;;;;;;38.00;30.75;;;;;8.10;88.89;97406.16;4968102;28;102172;-73
2022/11/16 06:46:33;;;;;;;;;21.00;18.25;;;;;8.01;88.50;97397.47;4975836;28;105595;-73
2022/11/16 06:49:00;;;;;;;;;39.25;27.75;;;;;8.12;89.07;97412.13;4973426;28;104009;-73
2022/11/16 06:51:27;;;;;;;;;16.25;15.25;;;;;8.10;88.56;97403.47;4970355;28;102612;-74
2022/11/16 06:53:54;;;;;;;;;22.00;19.25;;;;;8.14;88.99;97403.84;4960811;28;102083;-73
2022/11/16 06:56:21;;;;;;;;;13.75;12.50;;;;;8.14;88.47;97406.53;4975657;28;102086;-73
2022/11/16 06:58:48;;;;;;;;;23.25;17.75;;;;;8.18;88.97;97410.44;4971466;28;103966;-74
2022/11/16 07:01:19;;;;;;;;;18.75;15.00;;;;;8.19;88.72;97402.16;4973218;28;102069;-74
2022/11/16 07:03:46;;;;;;;;;14.25;13.50;;;;;8.21;88.08;97399.25;4964926;28;102071;-74
2022/11/16 07:06:13;;;;;;;;;15.25;14.75;;;;;8.23;88.00;97397.16;4970873;28;102088;-73
2022/11/16 07:08:40;;;;;;;;;13.00;12.00;;;;;8.24;88.09;97398.81;4973163;28;103993;-73
2022/11/16 07:11:08;;;;;;;;;16.25;14.75;;;;;8.22;88.10;97393.66;4972598;28;102348;-73
2022/11/16 07:13:36;;;;;;;;;13.00;10.00;;;;;8.23;88.21;97391.78;4972282;27;102104;-74
2022/11/16 07:16:06;;;;;;;;;20.50;15.50;;;;;8.22;87.58;97395.50;4975862;28;104148;-73
2022/11/16 07:18:34;;;;;;;;;21.50;17.75;;;;;8.21;88.12;97392.00;4974057;28;103996;-74
2022/11/16 07:21:10;;;;;;;;;17.25;16.00;;;;;8.22;87.68;97387.44;4973076;28;102070;-73
2022/11/16 07:23:37;;;;;;;;;25.75;22.50;;;;;8.21;87.75;97389.28;4973561;27;102139;-73
2022/11/16 07:26:06;;;;;;;;;37.25;21.25;;;;;8.23;88.11;97386.41;4963610;28;102260;-72
2022/11/16 07:28:33;;;;;;;;;19.75;15.00;;;;;8.24;88.20;97385.38;4974828;27;103983;-72
2022/11/16 07:31:02;;;;;;;;;18.50;15.75;;;;;8.23;88.42;97392.63;4962019;28;101945;-73
2022/11/16 07:33:29;;;;;;;;;38.00;33.75;;;;;8.21;87.66;97393.84;4969042;28;102416;-73
2022/11/16 07:36:10;;;;;;;;;42.50;36.00;;;;;8.19;88.30;97391.41;4974553;28;102170;-73
2022/11/16 07:38:38;;;;;;;;;29.25;23.25;;;;;8.11;88.13;97371.94;4970144;28;107950;-73
2022/11/16 07:41:08;;;;;;;;;21.75;19.00;;;;;8.21;88.19;97383.91;4966692;28;102311;-73
2022/11/16 07:43:35;;;;;;;;;25.00;23.25;;;;;8.22;87.83;97387.44;4974381;27;102232;-73
2022/11/16 07:46:08;;;;;;;;;21.00;16.75;;;;;8.23;87.70;97391.78;4972742;28;102306;-74
2022/11/16 07:48:56;;;;;;;;;23.75;20.00;;;;;8.22;87.93;97384.75;4972880;28;107221;-73
2022/11/16 07:51:24;;;;;;;;;24.50;21.25;;;;;8.22;87.92;97371.28;4971167;28;104344;-74
2022/11/16 07:53:54;;;;;;;;;38.25;34.25;;;;;8.17;88.26;97376.47;4972252;27;102455;-73
2022/11/16 07:56:22;;;;;;;;;46.50;37.00;;;;;8.20;88.24;97382.25;4973160;28;102380;-74
2022/11/16 07:58:49;;;;;;;;;36.00;29.50;;;;;8.24;88.94;97371.91;4970514;27;104558;-74
2022/11/16 08:01:17;;;;;;;;;32.00;28.50;;;;;8.28;88.88;97373.94;4972957;28;102421;-74
2022/11/16 08:03:45;;;;;;;;;30.50;23.50;;;;;8.22;88.12;97352.44;4972966;28;102104;-74
2022/11/16 08:06:16;;;;;;;;;28.00;22.00;;;;;8.35;88.28;97363.16;4973777;28;102106;-75
2022/11/16 08:08:43;;;;;;;;;23.75;18.00;;;;;8.38;88.16;97368.09;4972199;28;103946;-74
2022/11/16 08:11:11;;;;;;;;;19.50;13.50;;;;;8.39;88.15;97364.34;4973121;28;101814;-74
2022/11/16 08:13:40;;;;;;;;;22.75;18.00;;;;;8.41;88.01;97371.19;4971654;27;102197;-74
2022/11/16 08:16:10;;;;;;;;;23.25;15.50;;;;;8.46;88.02;97368.69;4972158;28;102091;-73
2022/11/16 08:18:38;;;;;;;;;19.00;16.75;;;;;8.45;87.25;97366.19;4972700;28;103036;-73
2022/11/16 08:21:07;;;;;;;;;23.00;22.00;;;;;8.49;87.59;97365.53;4973464;28;102462;-73
2022/11/16 08:23:34;;;;;;;;;17.00;14.50;;;;;8.48;87.81;97363.06;4972340;27;102229;-73
2022/11/16 08:26:08;;;;;;;;;19.00;17.00;;;;;8.46;86.85;97362.47;4972920;28;102179;-74
2022/11/16 08:28:36;;;;;;;;;26.00;20.00;;;;;8.47;87.62;97361.41;4971677;27;108816;-73
2022/11/16 08:31:08;;;;;;;;;19.25;17.75;;;;;8.49;87.20;97353.94;4970211;28;102201;-73
2022/11/16 08:33:35;;;;;;;;;15.50;14.25;;;;;8.51;87.28;97357.22;4969761;28;102167;-72
2022/11/16 08:36:04;;;;;;;;;16.50;13.25;;;;;8.52;87.57;97342.72;4976904;28;102078;-74
2022/11/16 08:38:41;;;;;;;;;15.75;14.50;;;;;8.57;87.41;97353.66;4970002;28;108793;-73
2022/11/16 08:41:08;;;;;;;;;27.50;22.50;;;;;8.54;86.69;97350.59;4972257;28;102086;-73
2022/11/16 08:43:35;;;;;;;;;17.00;13.00;;;;;8.53;87.51;97347.06;4963015;27;102172;-73
2022/11/16 08:46:02;;;;;;;;;15.00;12.25;;;;;8.58;87.49;97347.25;4973404;28;102095;-74
2022/11/16 08:48:29;;;;;;;;;13.75;10.00;;;;;8.61;87.95;97346.78;4970676;28;108632;-74
2022/11/16 08:51:08;;;;;;;;;16.50;14.50;;;;;8.65;87.71;97342.59;4973281;28;102397;-74
2022/11/16 08:53:43;;;;;;;;;22.25;21.50;;;;;8.68;88.12;97352.13;4961077;28;102301;-73
2022/11/16 08:56:12;;;;;;;;;23.75;21.25;;;;;8.66;87.17;97343.44;4969920;28;102230;-74
2022/11/16 08:58:45;;;;;;;;;13.00;12.00;;;;;8.71;87.54;97357.91;4967515;28;104034;-73
2022/11/16 09:01:15;;;;;;;;;13.75;12.00;;;;;8.75;87.68;97350.22;4969339;28;102117;-74
2022/11/16 09:03:43;;;;;;;;;8.00;6.00;;;;;8.78;86.86;97347.09;4968981;27;102257;-74
2022/11/16 09:06:11;;;;;;;;;11.50;11.50;;;;;8.81;87.63;97352.03;4989537;28;102417;-73
2022/11/16 09:08:41;;;;;;;;;15.50;13.25;;;;;8.86;87.27;97346.81;4966727;28;103980;-73
2022/11/16 09:11:12;;;;;;;;;20.00;16.50;;;;;8.72;86.92;97327.22;4970824;28;102181;-74
2022/11/16 09:13:39;;;;;;;;;18.00;16.25;;;;;8.83;86.71;97350.75;4970649;28;102312;-74
2022/11/16 09:16:07;;;;;;;;;16.75;14.75;;;;;8.81;86.73;97350.16;4958558;28;102042;-73
2022/11/16 09:18:34;;;;;;;;;20.00;19.25;;;;;8.80;86.37;97353.91;4962942;28;103969;-72
2022/11/16 09:21:02;;;;;;;;;11.00;8.50;;;;;8.79;86.40;97346.03;4971864;28;101998;-73
2022/11/16 09:23:29;;;;;;;;;8.50;7.25;;;;;8.79;86.79;97337.94;4972138;28;103015;-73
2022/11/16 09:26:00;;;;;;;;;12.25;9.25;;;;;8.77;86.79;97340.88;4971355;28;102429;-73
2022/11/16 09:28:27;;;;;;;;;17.00;11.75;;;;;8.81;87.11;97341.25;4970752;28;104110;-73
2022/11/16 09:31:01;;;;;;;;;11.75;10.75;;;;;8.84;87.16;97343.50;4972490;28;103003;-73
2022/11/16 09:33:30;;;;;;;;;8.00;7.00;;;;;8.86;86.86;97334.16;4966170;28;101732;-73
2022/11/16 09:36:05;;;;;;;;;9.25;9.00;;;;;8.89;86.70;97327.50;4953378;28;102102;-73
2022/11/16 09:38:42;;;;;;;;;8.75;6.00;;;;;8.90;87.05;97334.53;4955842;28;108640;-72
2022/11/16 09:41:38;;;;;;;;;10.25;8.75;;;;;8.91;86.59;97328.94;4970734;28;102279;-73
2022/11/16 09:44:14;;;;;;;;;10.75;9.25;;;;;8.93;86.85;97323.28;4968780;28;102178;-72
2022/11/16 09:46:48;;;;;;;;;20.00;18.00;;;;;8.96;86.57;97322.84;4960614;28;102812;-72
2022/11/16 09:49:21;;;;;;;;;5.50;4.75;;;;;8.98;86.72;97319.94;4976257;27;103953;-72
2022/11/16 09:51:52;;;;;;;;;12.00;7.00;;;;;9.00;86.39;97318.69;4968162;28;102337;-73
2022/11/16 09:54:23;;;;;;;;;11.75;11.25;;;;;8.99;86.48;97310.81;4971625;28;102431;-73
2022/11/16 09:56:56;;;;;;;;;9.50;8.25;;;;;8.86;86.88;97299.13;4972581;28;102977;-72
2022/11/16 09:59:27;;;;;;;;;9.25;8.25;;;;;8.98;86.42;97312.69;4970640;28;103077;-73
2022/11/16 10:02:20;;;;;;;;;6.00;4.75;;;;;8.96;86.22;97310.19;4971167;28;102245;-73
2022/11/16 10:04:58;;;;;;;;;11.25;10.00;;;;;8.90;86.18;97303.00;4969135;28;102242;-73
2022/11/16 10:07:32;;;;;;;;;17.00;16.00;;;;;8.89;86.31;97308.63;4967485;28;102344;-73
2022/11/16 10:09:59;;;;;;;;;10.50;9.00;;;;;8.84;85.93;97306.59;4972794;28;105922;-73
2022/11/16 10:12:46;;;;;;;;;11.25;9.25;;;;;8.81;86.21;97303.53;4972232;28;102429;-73
2022/11/16 10:15:49;;;;;;;;;10.25;9.25;;;;;8.79;86.98;97302.91;4961001;28;102249;-73
2022/11/16 10:18:16;;;;;;;;;10.75;9.25;;;;;8.74;86.94;97300.88;4968504;28;102259;-73
2022/11/16 10:21:10;;;;;;;;;14.75;14.75;;;;;8.71;86.99;97298.63;4967393;28;104059;-74
2022/11/16 10:24:14;;;;;;;;;11.50;11.00;;;;;8.65;87.22;97294.09;4957373;28;102332;-72
2022/11/16 10:26:54;;;;;;;;;20.00;17.25;;;;;8.57;87.37;97298.94;4970143;28;102288;-72
2022/11/16 10:29:39;;;;;;;;;16.50;14.00;;;;;8.59;87.36;97289.63;4970388;28;102169;-72
2022/11/16 10:32:27;;;;;;;;;14.25;13.00;;;;;8.60;87.77;97285.84;4970483;28;108493;-73
2022/11/16 10:35:07;;;;;;;;;10.75;9.00;;;;;8.61;87.45;97290.22;4966696;27;102154;-72
2022/11/16 10:37:39;;;;;;;;;9.00;8.00;;;;;8.63;87.58;97281.91;4971733;28;102048;-72
2022/11/16 10:40:17;;;;;;;;;10.75;9.75;;;;;8.64;87.56;97287.09;4965416;28;102539;-72
2022/11/16 10:43:04;;;;;;;;;33.00;27.50;;;;;8.34;87.91;97261.84;4971785;28;103745;-73
2022/11/16 10:45:42;;;;;;;;;28.75;22.75;;;;;8.48;87.99;97282.25;4966233;28;102000;-73
2022/11/16 10:48:42;;;;;;;;;25.00;21.25;;;;;8.51;88.75;97276.41;4972642;28;101947;-72
2022/11/16 10:51:09;;;;;;;;;20.50;16.75;;;;;8.53;87.94;97277.03;4961506;28;102477;-73
2022/11/16 10:53:39;;;;;;;;;16.00;14.25;;;;;8.51;87.96;97279.09;4970316;28;103982;-73
2022/11/16 10:56:12;;;;;;;;;24.50;18.25;;;;;8.47;88.51;97269.81;4974747;28;102027;-73
2022/11/16 10:58:59;;;;;;;;;16.50;14.00;;;;;8.51;88.43;97265.63;4965038;28;105827;-73
2022/11/16 11:01:38;;;;;;;;;19.25;15.25;;;;;8.53;88.37;97263.56;4974649;28;102852;-73
2022/11/16 11:04:25;;;;;;;;;16.50;10.00;;;;;8.57;88.04;97258.53;4970280;27;108255;-72
2022/11/16 11:06:55;;;;;;;;;16.75;13.75;;;;;8.61;87.96;97263.25;4973607;28;101848;-74
2022/11/16 11:09:31;;;;;;;;;23.75;21.00;;;;;8.55;88.50;97264.19;4970578;27;102430;-73
2022/11/16 11:15:04;;;;;;;;;25.25;25.00;;;;;8.49;88.47;97268.56;4969974;28;108602;-73
2022/11/16 11:17:34;;;;;;;;;31.50;26.25;;;;;8.43;88.48;97271.31;4968181;28;102368;-73
2022/11/16 11:20:03;;;;;;;;;39.75;35.00;;;;;8.32;89.42;97264.78;4972898;27;102044;-74
2022/11/16 11:22:41;;;;;;;;;56.00;40.75;;;;;8.07;89.88;97270.09;4976787;28;102274;-73
2022/11/16 11:25:34;;;;;;;;;60.75;46.25;;;;;7.92;91.37;97263.38;4967002;27;108705;-73
2022/11/16 11:28:30;;;;;;;;;56.25;43.50;;;;;7.94;91.36;97269.34;4974297;28;103082;-74
2022/11/16 11:31:03;;;;;;;;;45.25;34.75;;;;;8.02;91.40;97261.00;4967762;27;102095;-74
2022/11/16 11:33:38;;;;;;;;;55.75;44.00;;;;;7.80;91.15;97257.84;4975951;28;102418;-73
2022/11/16 11:36:19;;;;;;;;;47.75;36.75;;;;;7.84;91.74;97264.44;4970356;28;108641;-73
2022/11/16 11:39:06;;;;;;;;;50.00;40.50;;;;;7.78;91.53;97262.63;4970266;28;102422;-73
2022/11/16 11:41:41;;;;;;;;;40.25;34.25;;;;;7.78;91.93;97261.81;4967563;28;102240;-73
2022/11/16 11:44:11;;;;;;;;;47.75;39.50;;;;;7.63;91.82;97257.53;4965568;28;102343;-73
2022/11/16 11:46:45;;;;;;;;;38.50;34.50;;;;;7.75;92.82;97251.47;4970764;28;103993;-73
2022/11/16 11:49:40;;;;;;;;;32.50;27.75;;;;;7.87;91.30;97242.50;4972292;28;102253;-72
2022/11/16 11:52:21;;;;;;;;;46.50;38.00;;;;;7.80;91.28;97252.47;4967720;28;101863;-72
2022/11/16 11:54:53;;;;;;;;;35.75;33.75;;;;;7.85;91.93;97239.19;4963390;28;102335;-72
2022/11/16 11:57:22;;;;;;;;;33.50;27.25;;;;;7.88;91.97;97238.75;4973561;28;104101;-74
2022/11/16 11:59:53;;;;;;;;;47.75;37.50;;;;;7.77;91.92;97239.47;4972773;28;102552;-72
2022/11/16 12:02:25;;;;;;;;;40.75;33.75;;;;;7.83;91.89;97238.59;4974497;28;102329;-72
2022/11/16 12:05:04;;;;;;;;;58.25;38.25;;;;;7.78;91.82;97240.28;4975033;28;102460;-73
2022/11/16 12:07:31;;;;;;;;;60.00;47.25;;;;;7.65;92.36;97235.81;4973326;28;108722;-72
2022/11/16 12:10:19;;;;;;;;;52.25;38.00;;;;;7.72;91.95;97243.84;4973215;27;102718;-73
2022/11/16 12:13:07;;;;;;;;;57.75;41.75;;;;;7.76;92.42;97237.81;4968980;28;102116;-73
2022/11/16 12:15:45;;;;;;;;;67.33;51.00;;;;;7.60;92.56;97236.47;4971170;28;102896;-73
2022/11/16 12:18:20;;;;;;;;;70.75;52.25;;;;;7.58;92.39;97224.25;4966130;28;108433;-73
2022/11/16 12:21:13;;;;;;;;;72.33;53.00;;;;;7.54;92.53;97225.72;4972492;27;102573;-73
2022/11/16 12:24:03;;;;;;;;;68.25;46.75;;;;;7.52;93.14;97217.06;4972759;28;103036;-73